Hovedside
METAR-TAF:

METAR-TAF

Lufthavner :

Visby, Gotland, Sverige

Visby lufthavn

breddegrad: 57-40N, lengdegrad: 018-21E, høyde over havet: 51 m

Gjeldene værobservasjon

Denne rapporten ble laget for 38 minutter siden, klokken 07:50 UTC
Vind 2 kt fra Sør
Temperatur -8°C
Luftfuktighet 92%
Trykk 1013 hPa
Sikt 10 km eller mer
tåkebanker

METAR: ESSV 220750Z 18002KT 9999 BCFG NSC M08/M09 Q1013 R21/79//41

Tid: 09:28 (08:28 UTC)

Varsel

Denne rapporten ble laget for 1 time og 36 minutter siden, klokken 06:52 UTC
Varsel gyldig fra 22. klokken 06 UTC til 22. klokken 15 UTC
Vind 5 kt fra Vest-nordvest
Sikt 10 km eller mer
Spredte skyer i en høyde av 1500 ft
Sannsynlighet 40%
fra 22. klokken 06 UTC til 22. klokken 09 UTC
Sikt: 0200 m
i en høyde av 200 ft
underkjølt tåke

TAF: ESSV 220652Z 2206/2215 29005KT 9999 SCT015 PROB40 2206/2209 0200 FZFG VV002

Værobservasjoner og værvarsel for over 4000 flyplasser (METAR- og TAF-rapporter).

Tilgjengelige stasjoner er representert av de røde og gule prikkene på kartet.

Hold musepekeren over prikken for å se navnet på stasjonen.

Klikk så for å se værobservasjoner og -varsler.

For å forandre kartet kan du klikke på den grønne knappen med svart kryss for å zoome inn, på den grønne knappen med strek for å zoome ut, eller på de grønne pilene for å se tilstøtende kart.


METAR-TAF: